Map

Track Data

SID SEASON NUMBER BASIN SUBBASIN NAME ISO_TIME NATURE LAT LON WMO_WIND WMO_PRES WMO_AGENCY TRACK_TYPE DIST2LAND LANDFALL IFLAG USA_AGENCY USA_ATCF_ID USA_LAT USA_LON USA_RECORD USA_STATUS USA_WIND USA_PRES USA_SSHS USA_R34_NE USA_R34_SE USA_R34_SW USA_R34_NW USA_R50_NE USA_R50_SE USA_R50_SW USA_R50_NW USA_R64_NE USA_R64_SE USA_R64_SW USA_R64_NW USA_POCI USA_ROCI USA_RMW USA_EYE TOKYO_LAT TOKYO_LON TOKYO_GRADE TOKYO_WIND TOKYO_PRES TOKYO_R50_DIR TOKYO_R50_LONG TOKYO_R50_SHORT TOKYO_R30_DIR TOKYO_R30_LONG TOKYO_R30_SHORT TOKYO_LAND CMA_LAT CMA_LON CMA_CAT CMA_WIND CMA_PRES HKO_LAT HKO_LON HKO_CAT HKO_WIND HKO_PRES NEWDELHI_LAT NEWDELHI_LON NEWDELHI_GRADE NEWDELHI_WIND NEWDELHI_PRES NEWDELHI_CI NEWDELHI_DP NEWDELHI_POCI REUNION_LAT REUNION_LON REUNION_TYPE REUNION_WIND REUNION_PRES REUNION_TNUM REUNION_CI REUNION_RMW REUNION_R34_NE REUNION_R34_SE REUNION_R34_SW REUNION_R34_NW REUNION_R50_NE REUNION_R50_SE REUNION_R50_SW REUNION_R50_NW REUNION_R64_NE REUNION_R64_SE REUNION_R64_SW REUNION_R64_NW BOM_LAT BOM_LON BOM_TYPE BOM_WIND BOM_PRES BOM_TNUM BOM_CI BOM_RMW BOM_R34_NE BOM_R34_SE BOM_R34_SW BOM_R34_NW BOM_R50_NE BOM_R50_SE BOM_R50_SW BOM_R50_NW BOM_R64_NE BOM_R64_SE BOM_R64_SW BOM_R64_NW BOM_ROCI BOM_POCI BOM_EYE BOM_POS_METHOD BOM_PRES_METHOD NADI_LAT NADI_LON NADI_CAT NADI_WIND NADI_PRES WELLINGTON_LAT WELLINGTON_LON WELLINGTON_WIND WELLINGTON_PRES DS824_LAT DS824_LON DS824_STAGE DS824_WIND DS824_PRES TD9636_LAT TD9636_LON TD9636_STAGE TD9636_WIND TD9636_PRES TD9635_LAT TD9635_LON TD9635_WIND TD9635_PRES TD9635_ROCI NEUMANN_LAT NEUMANN_LON NEUMANN_CLASS NEUMANN_WIND NEUMANN_PRES MLC_LAT MLC_LON MLC_CLASS MLC_WIND MLC_PRES USA_GUST BOM_GUST BOM_GUST_PER REUNION_GUST REUNION_GUST_PER USA_SEAHGT USA_SEARAD_NE USA_SEARAD_SE USA_SEARAD_SW USA_SEARAD_NW STORM_SPEED STORM_DIR
1903321N19323 1903 62 NA NA NOT_NAMED 1903-11-17 06:00:00 TS 19.0000 -37.0000 35 hurdat_atl main 2088 2088 O_____________ hurdat_atl AL101903 19.0000 -37.0000 TS 35 0 16 289
1903321N19323 1903 62 NA NA NOT_NAMED 1903-11-17 09:00:00 TS 19.2635 -37.7893 main 2167 2167 P_____________ AL101903 19.2635 -37.7893 TS 35 0 15 289
1903321N19323 1903 62 NA NA NOT_NAMED 1903-11-17 12:00:00 TS 19.5000 -38.5000 35 hurdat_atl main 2196 2173 O_____________ hurdat_atl AL101903 19.5000 -38.5000 TS 35 0 13 290
1903321N19323 1903 62 NA NA NOT_NAMED 1903-11-17 15:00:00 TS 19.6992 -39.0931 main 2173 2152 P_____________ AL101903 19.6992 -39.0931 TS 35 0 12 290
1903321N19323 1903 62 NA NA NOT_NAMED 1903-11-17 18:00:00 TS 19.9000 -39.7000 35 hurdat_atl main 2152 2127 O_____________ hurdat_atl AL101903 19.9000 -39.7000 TS 35 0 14 288
1903321N19323 1903 62 NA NA NOT_NAMED 1903-11-17 21:00:00 TS 20.1275 -40.4703 main 2120 2094 P_____________ AL101903 20.1275 -40.4703 TS 35 0 16 288
1903321N19323 1903 62 NA NA NOT_NAMED 1903-11-18 00:00:00 TS 20.4000 -41.3000 35 hurdat_atl main 2094 2073 O_____________ hurdat_atl AL101903 20.4000 -41.3000 TS 35 0 16 291
1903321N19323 1903 62 NA NA NOT_NAMED 1903-11-18 03:00:00 TS 20.7272 -42.1077 main 2073 2061 P_____________ AL101903 20.7272 -42.1077 TS 35 0 17 295
1903321N19323 1903 62 NA NA NOT_NAMED 1903-11-18 06:00:00 TS 21.1000 -42.9000 35 hurdat_atl main 2065 2057 O_____________ hurdat_atl AL101903 21.1000 -42.9000 TS 35 0 17 297
1903321N19323 1903 62 NA NA NOT_NAMED 1903-11-18 09:00:00 TS 21.4848 -43.6802 main 2061 2056 P_____________ AL101903 21.4848 -43.6802 TS 35 0 16 300
1903321N19323 1903 62 NA NA NOT_NAMED 1903-11-18 12:00:00 TS 21.9000 -44.4000 35 hurdat_atl main 2066 2062 O_____________ hurdat_atl AL101903 21.9000 -44.4000 TS 35 0 15 305
1903321N19323 1903 62 NA NA NOT_NAMED 1903-11-18 15:00:00 TS 22.3420 -45.0230 main 2079 2079 P_____________ AL101903 22.3420 -45.0230 TS 35 0 14 309
1903321N19323 1903 62 NA NA NOT_NAMED 1903-11-18 18:00:00 TS 22.8000 -45.6000 35 hurdat_atl main 2104 2084 O_____________ hurdat_atl AL101903 22.8000 -45.6000 TS 35 0 14 310
1903321N19323 1903 62 NA NA NOT_NAMED 1903-11-18 21:00:00 TS 23.2573 -46.2003 main 2086 2036 P_____________ AL101903 23.2573 -46.2003 TS 35 0 14 309
1903321N19323 1903 62 NA NA NOT_NAMED 1903-11-19 00:00:00 TS 23.7000 -46.8000 35 hurdat_atl main 2036 1988 O_____________ hurdat_atl AL101903 23.7000 -46.8000 TS 35 0 14 307
1903321N19323 1903 62 NA NA NOT_NAMED 1903-11-19 03:00:00 TS 24.0922 -47.3933 main 1988 1942 P_____________ AL101903 24.0922 -47.3933 TS 37 0 14 306
1903321N19323 1903 62 NA NA NOT_NAMED 1903-11-19 06:00:00 TS 24.5000 -48.0000 40 hurdat_atl main 1942 1892 O_____________ hurdat_atl AL101903 24.5000 -48.0000 TS 40 0 15 307
1903321N19323 1903 62 NA NA NOT_NAMED 1903-11-19 09:00:00 TS 24.9929 -48.7019 main 1892 1856 P_____________ AL101903 24.9929 -48.7019 TS 42 0 15 310
1903321N19323 1903 62 NA NA NOT_NAMED 1903-11-19 12:00:00 TS 25.5000 -49.3000 45 hurdat_atl main 1856 1841 O_____________ hurdat_atl AL101903 25.5000 -49.3000 TS 45 0 13 318
1903321N19323 1903 62 NA NA NOT_NAMED 1903-11-19 15:00:00 TS 25.9571 -49.6628 main 1841 1841 P_____________ AL101903 25.9571 -49.6628 TS 47 0 10 334
1903321N19323 1903 62 NA NA NOT_NAMED 1903-11-19 18:00:00 TS 26.4000 -49.8000 50 hurdat_atl main 1851 1851 O_____________ hurdat_atl AL101903 26.4000 -49.8000 TS 50 0 9 355
1903321N19323 1903 62 NA NA NOT_NAMED 1903-11-19 21:00:00 TS 26.8499 -49.7604 main 1871 1871 P_____________ AL101903 26.8499 -49.7604 TS 55 0 9 11
1903321N19323 1903 62 NA NA NOT_NAMED 1903-11-20 00:00:00 TS 27.3000 -49.6000 60 hurdat_atl main 1914 1914 O_____________ hurdat_atl AL101903 27.3000 -49.6000 TS 60 0 9 15
1903321N19323 1903 62 NA NA NOT_NAMED 1903-11-20 03:00:00 TS 27.7573 -49.4946 main 1949 1949 P_____________ AL101903 27.7573 -49.4946 TS 62 0 9 16
1903321N19323 1903 62 NA NA NOT_NAMED 1903-11-20 06:00:00 TS 28.2000 -49.3000 65 hurdat_atl main 1988 1988 O_____________ hurdat_atl AL101903 28.2000 -49.3000 HU 65 1 10 29
1903321N19323 1903 62 NA NA NOT_NAMED 1903-11-20 09:00:00 TS 28.6526 -48.9381 main 2028 1999 P_____________ AL101903 28.6526 -48.9381 HU 67 1 11 41
1903321N19323 1903 62 NA NA NOT_NAMED 1903-11-20 12:00:00 TS 29.0000 -48.5000 70 hurdat_atl main 2001 1992 O_____________ hurdat_atl AL101903 29.0000 -48.5000 HU 70 1 9 56
1903321N19323 1903 62 NA NA NOT_NAMED 1903-11-20 15:00:00 TS 29.1525 -48.0845 main 1987 1987 P_____________ AL101903 29.1525 -48.0845 HU 70 1 7 74
1903321N19323 1903 62 NA NA NOT_NAMED 1903-11-20 18:00:00 TS 29.2000 -47.7000 70 hurdat_atl main 1995 1988 O_____________ hurdat_atl AL101903 29.2000 -47.7000 HU 70 1 6 79
1903321N19323 1903 62 NA NA NOT_NAMED 1903-11-20 21:00:00 TS 29.2646 -47.4074 main 1990 1990 P_____________ AL101903 29.2646 -47.4074 HU 70 1 5 79
1903321N19323 1903 62 NA NA NOT_NAMED 1903-11-21 00:00:00 TS 29.3000 -47.1000 70 hurdat_atl main 1997 1997 O_____________ hurdat_atl AL101903 29.3000 -47.1000 HU 70 1 6 86
1903321N19323 1903 62 NA NA NOT_NAMED 1903-11-21 03:00:00 TS 29.3076 -46.6649 main 2006 2006 P_____________ AL101903 29.3076 -46.6649 HU 70 1 8 90
1903321N19323 1903 62 NA NA NOT_NAMED 1903-11-21 06:00:00 TS 29.3000 -46.2000 70 hurdat_atl main 2019 2019 O_____________ hurdat_atl AL101903 29.3000 -46.2000 HU 70 1 8 92
1903321N19323 1903 62 NA NA NOT_NAMED 1903-11-21 09:00:00 TS 29.2849 -45.7848 main 2029 2029 P_____________ AL101903 29.2849 -45.7848 HU 70 1 7 90
1903321N19323 1903 62 NA NA NOT_NAMED 1903-11-21 12:00:00 TS 29.3000 -45.4000 70 hurdat_atl main 2041 2036 O_____________ hurdat_atl AL101903 29.3000 -45.4000 HU 70 1 7 81
1903321N19323 1903 62 NA NA NOT_NAMED 1903-11-21 15:00:00 TS 29.3849 -45.0351 main 2042 2037 P_____________ AL101903 29.3849 -45.0351 HU 70 1 6 72
1903321N19323 1903 62 NA NA NOT_NAMED 1903-11-21 18:00:00 TS 29.5000 -44.7000 70 hurdat_atl main 2040 2036 O_____________ hurdat_atl AL101903 29.5000 -44.7000 HU 70 1 6 70
1903321N19323 1903 62 NA NA NOT_NAMED 1903-11-21 21:00:00 TS 29.5924 -44.3849 main 2039 2035 P_____________ AL101903 29.5924 -44.3849 HU 70 1 6 69
1903321N19323 1903 62 NA NA NOT_NAMED 1903-11-22 00:00:00 TS 29.7000 -44.1000 70 hurdat_atl main 2038 2031 O_____________ hurdat_atl AL101903 29.7000 -44.1000 HU 70 1 5 63
1903321N19323 1903 62 NA NA NOT_NAMED 1903-11-22 03:00:00 TS 29.8349 -43.8349 main 2038 2021 P_____________ AL101903 29.8349 -43.8349 HU 70 1 5 55
1903321N19323 1903 62 NA NA NOT_NAMED 1903-11-22 06:00:00 TS 30.0000 -43.6000 70 hurdat_atl main 2024 2017 O_____________ hurdat_atl AL101903 30.0000 -43.6000 HU 70 1 5 51
1903321N19323 1903 62 NA NA NOT_NAMED 1903-11-22 09:00:00 TS 30.1550 -43.3848 main 2011 1997 P_____________ AL101903 30.1550 -43.3848 HU 70 1 5 41
1903321N19323 1903 62 NA NA NOT_NAMED 1903-11-22 12:00:00 TS 30.4000 -43.2000 70 hurdat_atl main 1997 1970 O_____________ hurdat_atl AL101903 30.4000 -43.2000 HU 70 1 7 26
1903321N19323 1903 62 NA NA NOT_NAMED 1903-11-22 15:00:00 TS 30.7675 -43.0349 main 1964 1917 P_____________ AL101903 30.7675 -43.0349 HU 70 1 9 16
1903321N19323 1903 62 NA NA NOT_NAMED 1903-11-22 18:00:00 TS 31.3000 -42.9000 70 hurdat_atl main 1917 1850 O_____________ hurdat_atl AL101903 31.3000 -42.9000 HU 70 1 13 9
1903321N19323 1903 62 NA NA NOT_NAMED 1903-11-22 21:00:00 TS 32.0050 -42.7924 main 1850 1774 P_____________ AL101903 32.0050 -42.7924 HU 70 1 15 6
1903321N19323 1903 62 NA NA NOT_NAMED 1903-11-23 00:00:00 TS 32.8000 -42.7000 70 hurdat_atl main 1774 1709 O_____________ hurdat_atl AL101903 32.8000 -42.7000 HU 70 1 16 6
1903321N19323 1903 62 NA NA NOT_NAMED 1903-11-23 03:00:00 TS 33.5800 -42.5999 main 1699 1636 P_____________ AL101903 33.5800 -42.5999 HU 70 1 15 6
1903321N19323 1903 62 NA NA NOT_NAMED 1903-11-23 06:00:00 TS 34.3000 -42.5000 70 hurdat_atl main 1636 1583 O_____________ hurdat_atl AL101903 34.3000 -42.5000 HU 70 1 13 7
1903321N19323 1903 62 NA NA NOT_NAMED 1903-11-23 09:00:00 TS 34.8950 -42.3998 main 1583 1540 P_____________ AL101903 34.8950 -42.3998 HU 70 1 11 8
1903321N19323 1903 62 NA NA NOT_NAMED 1903-11-23 12:00:00 TS 35.4000 -42.3000 70 hurdat_atl main 1540 1499 O_____________ hurdat_atl AL101903 35.4000 -42.3000 HU 70 1 10 9
1903321N19323 1903 62 NA NA NOT_NAMED 1903-11-23 15:00:00 TS 35.8800 -42.1999 main 1499 1467 P_____________ AL101903 35.8800 -42.1999 HU 70 1 9 10
1903321N19323 1903 62 NA NA NOT_NAMED 1903-11-23 18:00:00 TS 36.3000 -42.1000 70 hurdat_atl main 1467 1445 O_____________ hurdat_atl AL101903 36.3000 -42.1000 HU 70 1 8 12
1903321N19323 1903 62 NA NA NOT_NAMED 1903-11-23 21:00:00 TS 36.6650 -41.9999 main 1436 1415 P_____________ AL101903 36.6650 -41.9999 HU 70 1 7 13
1903321N19323 1903 62 NA NA NOT_NAMED 1903-11-24 00:00:00 TS 37.0000 -41.9000 70 hurdat_atl main 1415 1394 O_____________ hurdat_atl AL101903 37.0000 -41.9000 HU 70 1 7 13
1903321N19323 1903 62 NA NA NOT_NAMED 1903-11-24 03:00:00 TS 37.3425 -41.8073 main 1394 1365 P_____________ AL101903 37.3425 -41.8073 HU 70 1 7 13
1903321N19323 1903 62 NA NA NOT_NAMED 1903-11-24 06:00:00 TS 37.7000 -41.7000 70 hurdat_atl main 1365 1337 O_____________ hurdat_atl AL101903 37.7000 -41.7000 HU 70 1 8 14
1903321N19323 1903 62 NA NA NOT_NAMED 1903-11-24 09:00:00 TS 38.0849 -41.5722 main 1337 1316 P_____________ AL101903 38.0849 -41.5722 HU 70 1 8 17
1903321N19323 1903 62 NA NA NOT_NAMED 1903-11-24 12:00:00 TS 38.5000 -41.4000 70 hurdat_atl main 1316 1296 O_____________ hurdat_atl AL101903 38.5000 -41.4000 HU 70 1 9 21
1903321N19323 1903 62 NA NA NOT_NAMED 1903-11-24 15:00:00 TS 38.9426 -41.1577 main 1296 1275 P_____________ AL101903 38.9426 -41.1577 HU 70 1 10 23
1903321N19323 1903 62 NA NA NOT_NAMED 1903-11-24 18:00:00 TS 39.4000 -40.9000 70 hurdat_atl main 1275 1258 O_____________ hurdat_atl AL101903 39.4000 -40.9000 HU 70 1 10 21
1903321N19323 1903 62 NA NA NOT_NAMED 1903-11-24 21:00:00 TS 39.8424 -40.6994 main 1258 1234 P_____________ AL101903 39.8424 -40.6994 HU 67 1 10 19
1903321N19323 1903 62 NA NA NOT_NAMED 1903-11-25 00:00:00 TS 40.3000 -40.5000 65 hurdat_atl main 1234 1212 O_____________ hurdat_atl AL101903 40.3000 -40.5000 HU 65 1 10 20
1903321N19323 1903 62 NA NA NOT_NAMED 1903-11-25 03:00:00 TS 40.8000 -40.2501 main 1212 1199 P_____________ AL101903 40.8000 -40.2501 HU 65 1 11 21
1903321N19323 1903 62 NA NA NOT_NAMED 1903-11-25 06:00:00 TS 41.3000 -40.0000 65 hurdat_atl main 1199 1187 O_____________ hurdat_atl AL101903 41.3000 -40.0000 HU 65 1 10 19
1903321N19323 1903 62 NA NA NOT_NAMED 1903-11-25 09:00:00 TS 41.7273 -39.8136 main 1188 1172 P_____________ AL101903 41.7273 -39.8136 HU 65 1 9 18
1903321N19323 1903 62 NA NA NOT_NAMED 1903-11-25 12:00:00 TS 42.2000 -39.6000 65 hurdat_atl main 1173 1159 O_____________ hurdat_atl AL101903 42.2000 -39.6000 HU 65 1 11 20
1903321N19323 1903 62 NA NA NOT_NAMED 1903-11-25 15:00:00 TS 42.8079 -39.2851 main 1160 1148 P_____________ AL101903 42.8079 -39.2851 HU 57 0 14 22
1903321N19323 1903 62 NA NA NOT_NAMED 1903-11-25 18:00:00 ET 43.5000 -38.9000 50 hurdat_atl main 1150 O_____________ hurdat_atl AL101903 43.5000 -38.9000 EX 50 -4 15 22

About IBTrACS Database

This database is a web-friendly format of International Best Track Archive for Climate Stewardship (IBTrACS), a global best track data archive curated by NOAA dating back to 1842.

Updated: 2021-12-06